ADDS METAR Data INFO
IDs: Format: Raw Decoded Include TAF

Data at: 1158 UTC 23 Jun 2018

KBHM 231153Z 15003KT 7SM -RA BKN015 OVC021 23/22 A2993 RMK AO2 LTG DSNT E AND NW RAB09E24B43 SLP127 P0000 60010 70041 T02330222 10244 20228 53013
KBHM 231053Z 12004KT 10SM BKN029 OVC035 23/22 A2991 RMK AO2 LTG DSNT W AND NW SLP121 T02330222
KBHM 230953Z 12003KT 10SM BKN050 BKN060 23/22 A2990 RMK AO2 RAE19 SLP115 P0000 T02280222
KBHM 230853Z 22007KT 10SM -RA FEW026 BKN047 OVC070 24/22 A2989 RMK AO2 RAB34 SLP114 P0010 60010 T02390217 53004
KBHM 230844Z 23007KT 2SM -RA BR FEW020 OVC047 23/22 A2990 RMK AO2 RAB34 P0010 T02330217
KBHM 230753Z 20003KT 10SM FEW060 BKN075 24/22 A2988 RMK AO2 SLP109 T02390222
KBHM 230653Z 27004KT 10SM FEW036 24/23 A2988 RMK AO2 SLP110 T02390228
KBHM 230553Z 25005KT 10SM SCT036 24/23 A2988 RMK AO2 SLP109 T02440233 10272 20244 402890200 53004
KBHM 230453Z 25005KT 10SM SCT036 25/23 A2987 RMK AO2 SLP106 T02500233
KBHM 230353Z 22007KT 10SM SCT043 BKN060 26/23 A2987 RMK AO2 SLP104 T02560233
KBHM 230253Z 22004KT 10SM SCT046 BKN055 BKN095 25/23 A2987 RMK AO2 SLP105 T02500228 53015
KBHM 230153Z 21007KT 10SM FEW028 FEW032 BKN095 26/23 A2986 RMK AO2 SLP102 T02610228
KBHM 230053Z 22006KT 10SM FEW025 OVC250 26/22 A2983 RMK AO2 SLP092 T02610222
KBHM 222353Z 22011G19KT 10SM FEW025 OVC250 27/22 A2983 RMK AO2 SLP091 60031 T02720217 10289 20228 55005
KBHM 222253Z 23010KT 10SM SCT029 OVC250 28/23 A2982 RMK AO2 SLP090 T02780228
KBHM 222153Z 22009KT 10SM FEW020 SCT120 BKN250 28/22 A2983 RMK AO2 SLP092 T02780222
KBHM 222106Z 22010G17KT 10SM SCT018 BKN120 27/22 A2984 RMK AO2 T02670217
KBHM 222053Z 21013G18KT 5SM BR BKN018 OVC025 26/24 A2984 RMK AO2 SLP097 60031 T02610239 58019
KBHM 222036Z 21006KT 8SM SCT019 BKN024 BKN030 26/23 A2986 RMK AO2 LTG DSNT SW AND W T02560233
KBHM 221953Z 26005KT 6SM BR FEW029 SCT055 BKN075 25/23 A2988 RMK AO2 PK WND 20030/1857 WSHFT 1850 LTG DSNT E AND W RAE53 TSE01 SLP110 TS MOV NE P0031 T02500228
KBHM 221940Z 26006KT 4SM -RA BR FEW025 BKN070 OVC090 24/22 A2989 RMK AO2 PK WND 20030/1857 WSHFT 1850 LTG DSNT NE AND E TSE01 TS MOV NE P0030 T02390222
KBHM 221930Z 28012KT 1SM -RA BR SCT025 BKN034 OVC055 24/23 A2989 RMK AO2 PK WND 20030/1857 WSHFT 1850 LTG DSNT NE AND E AND W TSE01 TS MOV NE P0027 T02440228 RVRNO
KBHM 221922Z 23010KT 2SM -RA BR SCT025 BKN034 OVC055 24/23 A2990 RMK AO2 PK WND 20030/1857 WSHFT 1850 LTG DSNT NE AND E AND W TSE01 TS MOV NE P0021 T02440228
KBHM 221906Z COR 21012G30KT 2SM -RA BR SCT025 BKN034 OVC060 23/21 A2988 RMK AO2 PK WND 20030/1857 WSHFT 1850 VIS 1 1/2V2 1/2 LTG DSNT NE AND E TSE01 TS MOV NE P0003 T02330211
KBHM 221903Z 21016G30KT 2 1/2SM VCTS -RA SCT025CB BKN034 BKN044 23/21 A2989 RMK AO2 PK WND 20030/1857 VIS 1 1/2V5 LTG DSNT NE AND E TSE01 OCNL LTGIC VC W TS VC W MOV NE P0001 T02330206
KBHM 221853Z 25016KT 10SM -TSRA SCT025 SCT036 BKN044CB BKN250 28/23 A2989 RMK AO2 LTG DSNT ALQDS RAB48 TSB46 SLP113 OCNL LTGICCG SW TS SW MOV NE P0000 T02780228
KBHM 221847Z 24015KT 10SM TS SCT025 SCT036 BKN044CB BKN250 28/23 A2988 RMK AO2 LTG DSNT ALQDS TSB46 OCNL LTGICCG SW TS SW MOV NE
KBHM 221838Z 24011KT 10SM VCTS SCT025 SCT036 BKN044CB 28/23 A2989 RMK AO2 LTG DSNT N AND S AND NW OCNL LTGCG VC SW TS VC SW MOV NE T02830228
KBHM 221803Z 24014KT 10SM SCT025 BKN032 BKN040 28/22 A2989 RMK AO2 LTG DSNT NW T02830222
KBHM 221753Z 24011KT 10SM BKN027 BKN034 OVC120 28/23 A2990 RMK AO2 LTG DSNT NW SLP115 60000 T02830228 10289 20217 58001
KBHM 221726Z 23013G19KT 10SM BKN027 BKN034 OVC120 28/22 A2991 RMK AO2 T02830222
KBHM 221653Z 24013KT 10SM SCT029 BKN120 BKN250 29/22 A2990 RMK AO2 SLP115 T02890222
KBHM 221553Z 23011KT 10SM FEW110 BKN250 28/21 A2991 RMK AO2 SLP117 T02830211
KBHM 221453Z 24009KT 10SM FEW110 SCT250 27/21 A2990 RMK AO2 SLP116 60000 T02720206 50000
KBHM 221353Z 20010KT 10SM FEW016 FEW110 24/21 A2991 RMK AO2 SLP119 T02440206
KBHM 221253Z 19007KT 10SM FEW110 BKN150 22/20 A2991 RMK AO2 RAB1154E21 SLP119 P0000 T02220200
KBHM 221153Z 20008KT 10SM FEW110 22/19 A2990 RMK AO2 RAB12E22 SLP117 P0000 60026 70044 T02170194 10244 20200 55001
KBHM 221053Z 18003KT 10SM BKN060 21/19 A2989 RMK AO2 SLP115 T02060194
KBHM 220953Z 16003KT 10SM FEW070 SCT100 20/19 A2987 RMK AO2 RAE16 SLP107 P0001 T02000194
KBHM 220853Z 17004KT 4SM RA BR FEW035 BKN070 OVC100 21/19 A2991 RMK AO2 RAB41 SLP119 P0009 60025 T02060194 51006
KBHM 220753Z 00000KT 10SM FEW029 BKN085 OVC100 21/19 A2989 RMK AO2 RAE15 SLP115 P0010 T02060194
KBHM 220719Z 30003KT 10SM FEW022 BKN070 OVC100 21/19 A2990 RMK AO2 LTG DSNT E AND NW RAE15 P0010 T02060194
KBHM 220700Z 32006G16KT 4SM RA BR SCT013 BKN018 OVC070 21/19 A2992 RMK AO2 P0010 T02060189
KBHM 220653Z 32011G27KT 2 1/2SM +RA BR BKN015 OVC022 21/19 A2994 RMK AO2 PK WND 33027/0646 WSHFT 0639 RAB45 PRESRR SLP129 P0006 T02110194
KBHM 220553Z 22011KT 10SM OVC011 24/22 A2989 RMK AO2 LTG DSNT N AND NW SLP111 T02440222 10278 20244 402890239 50000
KBHM 220524Z 23009KT 10SM BKN012 BKN038 25/22 A2989 RMK AO2 T02500222
KBHM 220453Z 22005KT 10SM FEW016 25/22 A2989 RMK AO2 SLP112 T02500217
KBHM 220449Z 22006KT 10SM SCT016 24/22 A2989 RMK AO2
KBHM 220430Z 21008KT 10SM BKN016 24/22 A2989 RMK AO2 T02440217
KBHM 220353Z 20010KT 10SM CLR 25/22 A2989 RMK AO2 SLP111 T02500217
KBHM 220253Z 20008KT 10SM FEW019 25/22 A2989 RMK AO2 SLP112 T02500217 53006
KBHM 220153Z 20006KT 10SM FEW025 26/22 A2988 RMK AO2 SLP108 T02560217
KBHM 220107Z 20010KT 10SM SCT026 SCT034 27/22 A2987 RMK AO2 T02670217
KBHM 220053Z 21008KT 10SM BKN026 BKN034 27/22 A2987 RMK AO2 SLP107 T02670217
KBHM 220032Z 20013KT 10SM BKN028 BKN034 27/22 A2988 RMK AO2 T02720222